Time;durP1;ratioP1;P1;durP2;ratioP2;P2;SDS_P1;SDS_P2;PMS_P1;PMS_P2;Temp;Humidity;BMP_temperature;BMP_pressure;BME280_temperature;BME280_humidity;BME280_pressure;Samples;Min_cycle;Max_cycle;Signal;HPM_P1;HPM_P2
2023/07/22 00:02:13;;;;;;;1999.90;999.90;;;15.00;99.90;;;;;;5095150;28;20175;-71
2023/07/22 00:04:38;;;;;;;1999.90;999.90;;;15.00;99.90;;;;;;5095300;28;20682;-71
2023/07/22 00:07:05;;;;;;;1999.90;999.90;;;15.00;99.90;;;;;;5095258;28;20580;-71
2023/07/22 00:09:33;;;;;;;1999.90;999.90;;;14.90;99.90;;;;;;5095361;28;20182;-71
2023/07/22 00:11:59;;;;;;;1999.90;999.90;;;14.90;99.90;;;;;;5094948;28;20442;-71
2023/07/22 00:14:25;;;;;;;1999.90;999.90;;;14.90;99.90;;;;;;5095150;28;20433;-71
2023/07/22 00:16:50;;;;;;;1999.90;999.90;;;14.90;99.90;;;;;;5095168;28;20184;-71
2023/07/22 00:19:16;;;;;;;1999.90;999.90;;;14.80;99.90;;;;;;5095201;28;20180;-71
2023/07/22 00:21:41;;;;;;;1999.90;999.90;;;14.80;99.90;;;;;;5094776;28;20167;-71
2023/07/22 00:24:08;;;;;;;1999.90;999.90;;;14.80;99.90;;;;;;5094802;28;20263;-71
2023/07/22 00:26:33;;;;;;;1999.90;999.90;;;14.80;99.90;;;;;;5094949;28;20200;-71
2023/07/22 00:28:59;;;;;;;1999.90;999.90;;;14.80;99.90;;;;;;5094879;28;20413;-71
2023/07/22 00:31:24;;;;;;;1999.90;999.90;;;14.70;99.90;;;;;;5094754;28;20162;-71
2023/07/22 00:33:50;;;;;;;1999.90;999.90;;;14.80;99.90;;;;;;5094807;28;20248;-71
2023/07/22 00:36:16;;;;;;;1999.90;999.90;;;14.60;99.90;;;;;;5094850;28;20963;-71
2023/07/22 00:38:41;;;;;;;1999.90;999.90;;;14.70;99.90;;;;;;5094690;28;20178;-72
2023/07/22 00:41:07;;;;;;;1999.90;999.90;;;14.70;99.90;;;;;;5094407;28;20169;-71
2023/07/22 00:43:32;;;;;;;1999.90;999.90;;;14.70;99.90;;;;;;5094692;28;20167;-71
2023/07/22 00:45:59;;;;;;;1999.90;999.90;;;14.70;99.90;;;;;;5094411;28;20228;-71
2023/07/22 00:48:27;;;;;;;1999.90;999.90;;;14.70;99.90;;;;;;5094615;28;20566;-71
2023/07/22 00:50:53;;;;;;;1999.90;999.90;;;14.70;99.90;;;;;;5094417;28;20401;-71
2023/07/22 00:53:19;;;;;;;1999.90;999.90;;;14.70;99.90;;;;;;5094360;28;20786;-71
2023/07/22 00:55:45;;;;;;;1999.90;999.90;;;14.70;99.90;;;;;;5094327;28;20727;-71
2023/07/22 00:58:11;;;;;;;1999.90;999.90;;;14.70;99.90;;;;;;5094259;28;20170;-71
2023/07/22 01:00:36;;;;;;;1999.90;999.90;;;14.70;99.90;;;;;;5094498;28;20486;-71
2023/07/22 01:03:03;;;;;;;1999.90;999.90;;;14.60;99.90;;;;;;5094085;28;20166;-71
2023/07/22 01:05:30;;;;;;;1999.90;999.90;;;14.60;99.90;;;;;;5094112;28;20438;-71
2023/07/22 01:07:56;;;;;;;1999.90;999.90;;;14.50;99.90;;;;;;5094253;28;20770;-71
2023/07/22 01:10:22;;;;;;;1999.90;999.90;;;14.50;99.90;;;;;;5094176;28;20426;-71
2023/07/22 01:12:47;;;;;;;1999.90;999.90;;;14.50;99.90;;;;;;5093857;28;20400;-71
2023/07/22 01:15:13;;;;;;;1999.90;999.90;;;14.50;99.90;;;;;;5093978;28;20424;-71
2023/07/22 01:17:39;;;;;;;1999.90;999.90;;;14.50;99.90;;;;;;5094086;28;20198;-71
2023/07/22 01:20:06;;;;;;;1999.90;999.90;;;14.50;99.90;;;;;;5093938;28;20445;-71
2023/07/22 01:22:36;;;;;;;1999.90;999.90;;;14.50;99.90;;;;;;5093483;28;20422;-71
2023/07/22 01:25:03;;;;;;;1999.90;999.90;;;14.50;99.90;;;;;;5093638;28;20444;-71
2023/07/22 01:27:29;;;;;;;1999.90;999.90;;;14.40;99.90;;;;;;5093637;28;20505;-72
2023/07/22 01:29:55;;;;;;;1999.90;999.90;;;14.40;99.90;;;;;;5093684;28;20405;-71
2023/07/22 01:32:20;;;;;;;1999.90;999.90;;;14.50;99.90;;;;;;5093392;28;20408;-71
2023/07/22 01:34:46;;;;;;;1999.90;999.90;;;14.40;99.90;;;;;;5093552;28;20195;-71
2023/07/22 01:37:11;;;;;;;1999.90;999.90;;;14.40;99.90;;;;;;5093539;28;20184;-71
2023/07/22 01:39:37;;;;;;;1999.90;999.90;;;14.40;99.90;;;;;;5093574;28;20170;-71
2023/07/22 01:42:03;;;;;;;1999.90;999.90;;;14.40;99.90;;;;;;5093279;28;20537;-71
2023/07/22 01:44:29;;;;;;;1999.90;999.90;;;14.40;99.90;;;;;;5093550;28;20186;-71
2023/07/22 01:46:55;;;;;;;1999.90;999.90;;;14.40;99.90;;;;;;5093451;28;20541;-71
2023/07/22 01:49:21;;;;;;;1999.90;999.90;;;14.40;99.90;;;;;;5093416;28;20510;-71
2023/07/22 01:51:46;;;;;;;1999.90;999.90;;;14.40;99.90;;;;;;5093010;28;20171;-71
2023/07/22 01:54:12;;;;;;;1999.90;999.90;;;14.40;99.90;;;;;;5093113;28;20181;-71
2023/07/22 01:56:39;;;;;;;1999.90;999.90;;;14.30;99.90;;;;;;5093215;28;20192;-71
2023/07/22 01:59:05;;;;;;;1999.90;999.90;;;14.10;99.90;;;;;;5093198;28;20168;-71
2023/07/22 02:01:31;;;;;;;1999.90;999.90;;;14.00;99.90;;;;;;5093002;28;20478;-71
2023/07/22 02:03:57;;;;;;;1999.90;999.90;;;13.80;99.90;;;;;;5093035;28;20407;-71
2023/07/22 02:06:23;;;;;;;1999.90;999.90;;;13.70;99.90;;;;;;5092440;28;20451;-71
2023/07/22 02:08:49;;;;;;;1999.90;999.90;;;13.60;99.90;;;;;;5092892;28;20584;-71
2023/07/22 02:11:14;;;;;;;1999.90;999.90;;;13.60;99.90;;;;;;5092702;28;20165;-71
2023/07/22 02:13:40;;;;;;;1999.90;999.90;;;13.30;99.90;;;;;;5092864;28;20400;-71
2023/07/22 02:16:06;;;;;;;1999.90;999.90;;;13.50;99.90;;;;;;5092893;28;20229;-71
2023/07/22 02:18:31;;;;;;;1999.90;999.90;;;13.40;99.90;;;;;;5092854;28;20212;-71
2023/07/22 02:20:57;;;;;;;1999.90;999.90;;;13.40;99.90;;;;;;5092573;28;20166;-71
2023/07/22 02:23:24;;;;;;;1999.90;999.90;;;13.40;99.90;;;;;;5092724;28;20176;-71
2023/07/22 02:25:54;;;;;;;1999.90;999.90;;;13.30;99.90;;;;;;5092528;28;20525;-71
2023/07/22 02:28:21;;;;;;;1999.90;999.90;;;13.40;99.90;;;;;;5092713;28;20421;-71
2023/07/22 02:30:48;;;;;;;1999.90;999.90;;;13.30;99.90;;;;;;5092619;28;20402;-71
2023/07/22 02:33:13;;;;;;;1999.90;999.90;;;13.30;99.90;;;;;;5092367;28;20850;-71
2023/07/22 02:35:40;;;;;;;1999.90;999.90;;;13.40;99.90;;;;;;5092469;28;20510;-71
2023/07/22 02:38:07;;;;;;;1999.90;999.90;;;13.30;99.90;;;;;;5092582;28;20155;-71
2023/07/22 02:40:35;;;;;;;1999.90;999.90;;;13.30;99.90;;;;;;5092445;28;20433;-71
2023/07/22 02:43:00;;;;;;;1999.90;999.90;;;13.20;99.90;;;;;;5092183;28;20404;-71
2023/07/22 02:45:26;;;;;;;1999.90;999.90;;;13.20;99.90;;;;;;5092325;28;20781;-71
2023/07/22 02:47:52;;;;;;;1999.90;999.90;;;13.20;99.90;;;;;;5092432;28;20292;-71
2023/07/22 02:50:18;;;;;;;1999.90;999.90;;;13.10;99.90;;;;;;5092259;28;20914;-71
2023/07/22 02:52:43;;;;;;;1999.90;999.90;;;13.10;99.90;;;;;;5091977;28;20248;-71
2023/07/22 02:55:11;;;;;;;1999.90;999.90;;;13.10;99.90;;;;;;5092233;28;20560;-71
2023/07/22 02:57:38;;;;;;;1999.90;999.90;;;13.10;99.90;;;;;;5092256;28;20540;-71
2023/07/22 03:00:07;;;;;;;1999.90;999.90;;;13.10;99.90;;;;;;5092265;28;20412;-71
2023/07/22 03:02:33;;;;;;;1999.90;999.90;;;13.10;99.90;;;;;;5091945;28;20439;-71
2023/07/22 03:04:59;;;;;;;1999.90;999.90;;;13.10;99.90;;;;;;5092059;28;20424;-71
2023/07/22 03:07:26;;;;;;;1999.90;999.90;;;13.10;99.90;;;;;;5092520;28;20444;-71
2023/07/22 03:09:52;;;;;;;1999.90;999.90;;;13.20;99.90;;;;;;5092123;28;20171;-71
2023/07/22 03:12:17;;;;;;;1999.90;999.90;;;13.10;99.90;;;;;;5091825;28;20751;-71
2023/07/22 03:14:43;;;;;;;1999.90;999.90;;;13.10;99.90;;;;;;5092038;28;20196;-71
2023/07/22 03:17:08;;;;;;;1999.90;999.90;;;13.10;99.90;;;;;;5092562;28;20226;-71
2023/07/22 03:19:34;;;;;;;1999.90;999.90;;;13.10;99.90;;;;;;5096131;28;20170;-71
2023/07/22 03:22:00;;;;;;;1999.90;999.90;;;13.00;99.90;;;;;;5095986;28;20185;-71
2023/07/22 03:24:25;;;;;;;1999.90;999.90;;;13.00;99.90;;;;;;5096024;28;20443;-71
2023/07/22 03:26:51;;;;;;;1999.90;999.90;;;13.00;99.90;;;;;;5096180;28;20228;-71
2023/07/22 03:29:16;;;;;;;1999.90;999.90;;;13.00;99.90;;;;;;5096117;28;20543;-71
2023/07/22 03:31:42;;;;;;;1999.90;999.90;;;13.00;99.90;;;;;;5095779;28;20169;-71
2023/07/22 03:34:08;;;;;;;1999.90;999.90;;;13.00;99.90;;;;;;5095836;28;20190;-71
2023/07/22 03:36:33;;;;;;;1999.90;999.90;;;12.90;99.90;;;;;;5096052;28;20535;-71
2023/07/22 03:38:59;;;;;;;1999.90;999.90;;;12.90;99.90;;;;;;5096116;28;20172;-71
2023/07/22 03:41:25;;;;;;;1999.90;999.90;;;12.90;99.90;;;;;;5095633;28;20530;-71
2023/07/22 03:43:51;;;;;;;1999.90;999.90;;;13.00;99.90;;;;;;5095806;28;20497;-71
2023/07/22 03:46:16;;;;;;;1999.90;999.90;;;12.90;99.90;;;;;;5095699;28;20192;-71
2023/07/22 03:48:42;;;;;;;1999.90;999.90;;;13.00;99.90;;;;;;5095742;28;20169;-71
2023/07/22 03:51:07;;;;;;;1999.90;999.90;;;13.00;99.90;;;;;;5095344;28;20183;-71
2023/07/22 03:53:33;;;;;;;1999.90;999.90;;;13.00;99.90;;;;;;5095624;28;20167;-72
2023/07/22 03:55:58;;;;;;;1999.90;999.90;;;13.00;99.90;;;;;;5095668;28;20189;-71
2023/07/22 03:58:24;;;;;;;1999.90;999.90;;;13.20;99.90;;;;;;5095580;28;20173;-71
2023/07/22 04:00:50;;;;;;;1999.90;999.90;;;13.20;99.90;;;;;;5095455;28;20540;-71
2023/07/22 04:03:16;;;;;;;1999.90;999.90;;;13.30;99.90;;;;;;5095221;28;20249;-71
2023/07/22 04:05:41;;;;;;;1999.90;999.90;;;13.20;99.90;;;;;;5095272;28;20228;-71
2023/07/22 04:08:07;;;;;;;1999.90;999.90;;;13.20;99.90;;;;;;5095344;28;20177;-71
2023/07/22 04:10:32;;;;;;;1999.90;999.90;;;13.20;99.90;;;;;;5095336;28;20168;-71
2023/07/22 04:12:58;;;;;;;1999.90;999.90;;;13.20;99.90;;;;;;5095038;28;20161;-71
2023/07/22 04:15:23;;;;;;;1999.90;999.90;;;13.20;99.90;;;;;;5095164;28;20200;-71
2023/07/22 04:17:49;;;;;;;1999.90;999.90;;;13.30;99.90;;;;;;5095127;28;20651;-71
2023/07/22 04:20:15;;;;;;;1999.90;999.90;;;13.30;99.90;;;;;;5095110;28;20847;-71
2023/07/22 04:22:41;;;;;;;1999.90;999.90;;;13.30;99.90;;;;;;5094956;28;20176;-71
2023/07/22 04:25:07;;;;;;;1999.90;999.90;;;13.40;99.90;;;;;;5094993;28;20691;-71
2023/07/22 04:27:33;;;;;;;1999.90;999.90;;;13.50;99.90;;;;;;5094919;28;20490;-71
2023/07/22 04:29:58;;;;;;;1999.90;999.90;;;13.40;99.90;;;;;;5094552;28;20450;-71
2023/07/22 04:32:24;;;;;;;1999.90;999.90;;;13.30;99.90;;;;;;5094577;28;20160;-71
2023/07/22 04:34:49;;;;;;;1999.90;999.90;;;13.30;99.90;;;;;;5094781;28;20189;-71
2023/07/22 04:37:16;;;;;;;1999.90;999.90;;;13.40;99.90;;;;;;5094893;28;20166;-71
2023/07/22 04:39:42;;;;;;;1999.90;999.90;;;13.40;99.90;;;;;;5094846;28;20207;-71
2023/07/22 04:42:08;;;;;;;1999.90;999.90;;;13.30;99.90;;;;;;5094526;28;20822;-71
2023/07/22 04:44:33;;;;;;;1999.90;999.90;;;13.30;99.90;;;;;;5094621;28;20225;-71
2023/07/22 04:46:59;;;;;;;1999.90;999.90;;;13.50;99.90;;;;;;5094612;28;20232;-71
2023/07/22 04:49:25;;;;;;;1999.90;999.90;;;13.60;99.90;;;;;;5094467;28;20666;-71
2023/07/22 04:51:51;;;;;;;1999.90;999.90;;;13.60;99.90;;;;;;5094308;28;20409;-71
2023/07/22 04:54:17;;;;;;;1999.90;999.90;;;13.70;99.90;;;;;;5094527;28;20221;-71
2023/07/22 04:56:43;;;;;;;1999.90;999.90;;;13.70;99.90;;;;;;5094452;28;20181;-71
2023/07/22 04:59:09;;;;;;;1999.90;999.90;;;13.70;99.90;;;;;;5094444;28;20538;-71
2023/07/22 05:01:35;;;;;;;1999.90;999.90;;;13.70;99.90;;;;;;5093969;28;20159;-71
2023/07/22 05:04:01;;;;;;;1999.90;999.90;;;13.70;99.90;;;;;;5094229;28;20429;-71
2023/07/22 05:06:28;;;;;;;1999.90;999.90;;;13.80;99.90;;;;;;5094190;28;20206;-71
2023/07/22 05:08:53;;;;;;;1999.90;999.90;;;13.80;99.90;;;;;;5094265;28;20656;-71
2023/07/22 05:11:19;;;;;;;1999.90;999.90;;;13.90;99.90;;;;;;5093835;28;20398;-71
2023/07/22 05:13:44;;;;;;;1999.90;999.90;;;13.80;99.90;;;;;;5094069;28;20545;-71
2023/07/22 05:16:10;;;;;;;1999.90;999.90;;;14.10;99.90;;;;;;5094061;28;20468;-71
2023/07/22 05:18:36;;;;;;;1999.90;999.90;;;14.10;99.90;;;;;;5094042;28;20170;-71
2023/07/22 05:21:01;;;;;;;1999.90;999.90;;;14.20;99.90;;;;;;5093741;28;20167;-72
2023/07/22 05:23:27;;;;;;;1999.90;999.90;;;14.20;99.90;;;;;;5093948;28;20164;-72
2023/07/22 05:25:53;;;;;;;1999.90;999.90;;;14.30;99.90;;;;;;5093686;28;20211;-71
2023/07/22 05:28:18;;;;;;;1999.90;999.90;;;14.20;99.90;;;;;;5093933;28;20565;-71
2023/07/22 05:30:44;;;;;;;1999.90;999.90;;;14.30;99.90;;;;;;5093670;28;20413;-71
2023/07/22 05:33:10;;;;;;;1999.90;999.90;;;14.40;99.90;;;;;;5093452;28;20249;-71
2023/07/22 05:35:35;;;;;;;1999.90;999.90;;;14.60;99.90;;;;;;5093610;28;20186;-71
2023/07/22 05:38:04;;;;;;;1999.90;999.90;;;14.60;99.90;;;;;;5093623;28;20173;-71
2023/07/22 05:40:30;;;;;;;1999.90;999.90;;;14.70;99.90;;;;;;5092717;28;20256;-71
2023/07/22 05:42:55;;;;;;;1999.90;999.90;;;14.90;99.90;;;;;;5093254;28;20756;-71
2023/07/22 05:45:21;;;;;;;1999.90;999.90;;;14.90;99.90;;;;;;5093333;28;20436;-71
2023/07/22 05:47:46;;;;;;;1999.90;999.90;;;15.10;99.90;;;;;;5093351;28;20197;-71
2023/07/22 05:50:12;;;;;;;1999.90;999.90;;;15.30;99.90;;;;;;5093391;28;20189;-71
2023/07/22 05:52:38;;;;;;;1999.90;999.90;;;15.40;99.90;;;;;;5093123;28;20656;-71
2023/07/22 05:55:04;;;;;;;1999.90;999.90;;;15.50;99.90;;;;;;5093335;28;20208;-71
2023/07/22 05:57:30;;;;;;;1999.90;999.90;;;15.60;99.90;;;;;;5093260;28;20167;-71
2023/07/22 05:59:56;;;;;;;1999.90;999.90;;;15.60;99.90;;;;;;5093212;28;20404;-71
2023/07/22 06:02:21;;;;;;;1999.90;999.90;;;15.70;99.90;;;;;;5093296;28;20944;-71
2023/07/22 06:04:48;;;;;;;1999.90;999.90;;;15.70;99.90;;;;;;5093339;28;20189;-71
2023/07/22 06:07:13;;;;;;;1999.90;999.90;;;15.80;99.90;;;;;;5093336;28;20263;-71
2023/07/22 06:09:39;;;;;;;1999.90;999.90;;;15.90;99.90;;;;;;5093453;28;20404;-71
2023/07/22 06:12:05;;;;;;;1999.90;999.90;;;16.10;99.90;;;;;;5092909;28;20165;-71
2023/07/22 06:14:30;;;;;;;1999.90;999.90;;;16.20;99.90;;;;;;5093337;28;20189;-71
2023/07/22 06:16:56;;;;;;;1999.90;999.90;;;16.30;99.90;;;;;;5093233;28;20805;-70
2023/07/22 06:19:23;;;;;;;1999.90;999.90;;;16.50;99.90;;;;;;5093204;28;20164;-71
2023/07/22 06:21:49;;;;;;;1999.90;999.90;;;16.50;99.90;;;;;;5092978;28;20314;-71
2023/07/22 06:24:14;;;;;;;1999.90;999.90;;;16.50;99.90;;;;;;5092949;28;20505;-71
2023/07/22 06:26:40;;;;;;;1999.90;999.90;;;16.60;99.90;;;;;;5093117;28;20227;-71
2023/07/22 06:29:07;;;;;;;1999.90;999.90;;;16.80;99.90;;;;;;5092993;28;20198;-71
2023/07/22 06:31:32;;;;;;;1999.90;999.90;;;17.00;99.90;;;;;;5092667;28;20457;-71
2023/07/22 06:33:59;;;;;;;1999.90;999.90;;;17.10;99.90;;;;;;5093048;28;20249;-71
2023/07/22 06:36:25;;;;;;;1999.90;999.90;;;17.10;99.90;;;;;;5092853;28;20182;-71
2023/07/22 06:38:51;;;;;;;1999.90;999.90;;;17.20;99.90;;;;;;5092964;28;20496;-71
2023/07/22 06:41:17;;;;;;;1999.90;999.90;;;17.30;99.90;;;;;;5092647;28;20443;-71
2023/07/22 06:43:43;;;;;;;1999.90;999.90;;;17.40;99.90;;;;;;5092891;28;20190;-71
2023/07/22 06:46:09;;;;;;;1999.90;999.90;;;17.50;99.90;;;;;;5092743;28;20850;-71
2023/07/22 06:48:34;;;;;;;1999.90;999.90;;;17.60;99.90;;;;;;5092808;28;20687;-71
2023/07/22 06:51:00;;;;;;;1999.90;999.90;;;17.70;99.90;;;;;;5092427;28;20200;-71
2023/07/22 06:53:25;;;;;;;1999.90;999.90;;;17.80;99.90;;;;;;5092654;28;20657;-71
2023/07/22 06:55:52;;;;;;;1999.90;999.90;;;17.80;99.90;;;;;;5092486;28;20261;-71
2023/07/22 06:58:22;;;;;;;1999.90;999.90;;;17.90;99.90;;;;;;5092538;28;20183;-71
2023/07/22 07:00:52;;;;;;;1999.90;999.90;;;17.90;99.90;;;;;;5092395;28;20438;-71
2023/07/22 07:03:17;;;;;;;1999.90;999.90;;;17.90;99.90;;;;;;5092454;28;20430;-71
2023/07/22 07:05:43;;;;;;;1999.90;999.90;;;18.10;99.90;;;;;;5092395;28;20499;-71
2023/07/22 07:08:10;;;;;;;1999.90;999.90;;;18.20;99.90;;;;;;5092439;28;20175;-71
2023/07/22 07:10:39;;;;;;;1999.90;999.90;;;18.30;99.90;;;;;;5092661;28;20218;-71
2023/07/22 07:13:05;;;;;;;1999.90;999.90;;;18.30;99.90;;;;;;5092047;28;20432;-71
2023/07/22 07:15:30;;;;;;;1999.90;999.90;;;18.30;99.90;;;;;;5092632;28;20509;-71
2023/07/22 07:17:56;;;;;;;1999.90;999.90;;;18.40;99.90;;;;;;5092659;28;20186;-71
2023/07/22 07:20:22;;;;;;;1999.90;999.90;;;18.50;99.90;;;;;;5092466;28;20633;-71
2023/07/22 07:22:47;;;;;;;1999.90;999.90;;;18.50;99.90;;;;;;5092011;28;20265;-71
2023/07/22 07:25:15;;;;;;;1999.90;999.90;;;18.40;99.90;;;;;;5092265;28;20207;-71
2023/07/22 07:27:41;;;;;;;1999.90;999.90;;;18.50;99.90;;;;;;5092028;28;20206;-71
2023/07/22 07:30:08;;;;;;;1999.90;999.90;;;18.60;99.90;;;;;;5092326;28;20887;-71
2023/07/22 07:32:34;;;;;;;1999.90;999.90;;;18.70;99.90;;;;;;5092262;28;20418;-71
2023/07/22 07:34:59;;;;;;;1999.90;999.90;;;18.70;99.90;;;;;;5092196;28;20422;-71
2023/07/22 07:37:25;;;;;;;1999.90;999.90;;;18.90;99.90;;;;;;5092166;28;20174;-71
2023/07/22 07:39:51;;;;;;;1999.90;999.90;;;19.00;99.90;;;;;;5091857;28;20180;-72
2023/07/22 07:42:16;;;;;;;1999.90;999.90;;;19.20;99.90;;;;;;5091450;28;20581;-71
2023/07/22 07:44:42;;;;;;;1999.90;999.90;;;19.30;99.90;;;;;;5091660;28;20198;-71
2023/07/22 07:47:07;;;;;;;1999.90;999.90;;;19.30;99.90;;;;;;5091682;28;20671;-71
2023/07/22 07:49:33;;;;;;;1999.90;999.90;;;19.50;99.90;;;;;;5091820;28;20178;-71
2023/07/22 07:51:59;;;;;;;1999.90;999.90;;;19.60;99.90;;;;;;5091372;28;20316;-72
2023/07/22 07:54:24;;;;;;;1999.90;999.90;;;19.60;99.90;;;;;;5091680;28;20514;-71
2023/07/22 07:56:50;;;;;;;1999.90;999.90;;;19.70;99.90;;;;;;5091648;28;20217;-71
2023/07/22 07:59:16;;;;;;;1999.90;999.90;;;19.70;99.90;;;;;;5087844;28;20180;-71
2023/07/22 08:01:41;;;;;;;1999.90;999.90;;;19.70;99.90;;;;;;5088718;28;20195;-71
2023/07/22 08:04:10;;;;;;;1999.90;999.90;;;19.60;99.90;;;;;;5093762;28;20207;-71
2023/07/22 08:06:37;;;;;;;1999.90;999.90;;;19.70;99.90;;;;;;5095360;28;20192;-71
2023/07/22 08:09:04;;;;;;;1999.90;999.90;;;19.80;99.90;;;;;;5095392;28;20407;-71
2023/07/22 08:11:30;;;;;;;1999.90;999.90;;;19.80;99.90;;;;;;5094698;28;20422;-71
2023/07/22 08:13:56;;;;;;;1999.90;999.90;;;19.90;99.90;;;;;;5094974;28;20430;-71
2023/07/22 08:16:22;;;;;;;1999.90;999.90;;;19.90;99.90;;;;;;5094367;28;20223;-71
2023/07/22 08:18:48;;;;;;;1999.90;999.90;;;19.90;99.90;;;;;;5095204;28;20662;-71
2023/07/22 08:21:13;;;;;;;1999.90;999.90;;;20.10;99.90;;;;;;5094698;28;20781;-71
2023/07/22 08:23:39;;;;;;;1999.90;999.90;;;20.20;99.90;;;;;;5095045;28;20419;-72
2023/07/22 08:26:05;;;;;;;1999.90;999.90;;;20.20;99.90;;;;;;5094666;28;20238;-72
2023/07/22 08:28:31;;;;;;;1999.90;999.90;;;20.20;99.90;;;;;;5094891;28;20616;-72
2023/07/22 08:30:57;;;;;;;1999.90;999.90;;;20.30;99.90;;;;;;5087496;28;20450;-71
2023/07/22 08:33:24;;;;;;;1999.90;999.90;;;20.40;99.90;;;;;;5087611;28;20502;-71
2023/07/22 08:35:51;;;;;;;1999.90;999.90;;;20.40;99.90;;;;;;5091303;28;20192;-71
2023/07/22 08:38:17;;;;;;;1999.90;999.90;;;20.40;99.90;;;;;;5094664;28;20404;-71
2023/07/22 08:40:42;;;;;;;1999.90;999.90;;;20.30;99.90;;;;;;5091922;28;20766;-72
2023/07/22 08:43:10;;;;;;;1999.90;999.90;;;20.30;99.90;;;;;;5094527;28;20253;-71
2023/07/22 08:45:38;;;;;;;1999.90;999.90;;;20.40;99.90;;;;;;5094620;28;20478;-72
2023/07/22 08:48:07;;;;;;;1999.90;999.90;;;20.50;99.90;;;;;;5094473;28;21192;-72
2023/07/22 08:50:35;;;;;;;1999.90;999.90;;;20.40;99.90;;;;;;5094520;28;20417;-72
2023/07/22 08:53:01;;;;;;;1999.90;999.90;;;20.50;99.90;;;;;;5094262;28;20458;-72
2023/07/22 08:55:27;;;;;;;1999.90;999.90;;;20.60;99.90;;;;;;5094316;28;20494;-72
2023/07/22 08:57:54;;;;;;;1999.90;999.90;;;20.70;98.80;;;;;;5094298;28;20412;-72
2023/07/22 09:00:20;;;;;;;1999.90;999.90;;;20.80;97.70;;;;;;5094484;28;20171;-71
2023/07/22 09:02:46;;;;;;;1999.90;999.90;;;20.80;96.20;;;;;;5094123;28;20411;-72
2023/07/22 09:05:12;;;;;;;1999.90;999.90;;;20.80;95.80;;;;;;5094259;28;20225;-72
2023/07/22 09:07:38;;;;;;;1999.90;999.90;;;21.00;95.50;;;;;;5094634;28;20444;-71
2023/07/22 09:10:07;;;;;;;1999.90;999.90;;;21.10;95.30;;;;;;5094562;28;20673;-71
2023/07/22 09:12:39;;;;;;;1999.90;999.90;;;21.30;94.10;;;;;;5089445;28;20841;-71
2023/07/22 09:15:08;;;;;;;1999.90;999.90;;;21.40;88.40;;;;;;5093163;28;20968;-71
2023/07/22 09:17:33;;;;;;;1999.90;999.90;;;21.50;90.70;;;;;;5094286;28;20808;-71
2023/07/22 09:19:59;;;;;;;1999.90;999.90;;;21.60;89.10;;;;;;5094230;28;20404;-71
2023/07/22 09:22:27;;;;;;;1999.90;999.90;;;21.60;85.80;;;;;;5093945;28;20212;-71
2023/07/22 09:24:52;;;;;;;1999.90;999.90;;;21.80;90.90;;;;;;5093808;28;20217;-71
2023/07/22 09:27:33;;;;;;;1999.90;999.90;;;21.90;78.00;;;;;;5093925;28;20528;-71
2023/07/22 09:29:58;;;;;;;1999.90;999.90;;;21.90;67.70;;;;;;5091008;28;20334;-71
2023/07/22 09:32:36;;;;;;;1999.90;999.90;;;21.80;67.70;;;;;;5083324;28;20514;-71
2023/07/22 09:35:02;;;;;;;1999.90;999.90;;;21.70;65.60;;;;;;5090846;28;20198;-71
2023/07/22 09:37:38;;;;;;;1999.90;999.90;;;21.70;63.30;;;;;;5088688;28;20505;-71
2023/07/22 09:40:17;;;;;;;1999.90;999.90;;;21.80;68.10;;;;;;5092487;28;20187;-71
2023/07/22 09:42:49;;;;;;;1999.90;999.90;;;21.90;63.70;;;;;;5093344;28;20816;-71
2023/07/22 09:45:15;;;;;;;1999.90;999.90;;;21.90;64.50;;;;;;5093455;28;20426;-71
2023/07/22 09:47:45;;;;;;;1999.90;999.90;;;21.80;60.90;;;;;;5093662;28;20494;-71
2023/07/22 09:50:16;;;;;;;1999.90;999.90;;;22.00;68.70;;;;;;5093688;28;20411;-71
2023/07/22 09:52:48;;;;;;;1999.90;999.90;;;22.00;61.70;;;;;;5093490;28;20426;-71
2023/07/22 09:55:19;;;;;;;1999.90;999.90;;;21.90;58.80;;;;;;5093303;28;20429;-71
2023/07/22 09:57:52;;;;;;;1999.90;999.90;;;21.80;56.20;;;;;;5093262;28;20406;-71
2023/07/22 10:00:20;;;;;;;1999.90;999.90;;;21.90;55.20;;;;;;5093393;28;20778;-71
2023/07/22 10:02:49;;;;;;;1999.90;999.90;;;22.00;55.30;;;;;;5092853;28;20475;-71
2023/07/22 10:05:16;;;;;;;1999.90;999.90;;;22.10;53.60;;;;;;5093046;28;20497;-71
2023/07/22 10:07:48;;;;;;;1999.90;999.90;;;22.20;54.60;;;;;;5092811;28;20541;-71
2023/07/22 10:10:19;;;;;;;1999.90;999.90;;;22.40;54.30;;;;;;5092988;28;20429;-71
2023/07/22 10:12:46;;;;;;;1999.90;999.90;;;22.30;46.10;;;;;;5092993;28;20448;-71
2023/07/22 10:15:13;;;;;;;1999.90;999.90;;;22.30;48.00;;;;;;5092482;28;20434;-71
2023/07/22 10:17:41;;;;;;;1999.90;999.90;;;22.40;41.20;;;;;;5092823;28;20439;-71
2023/07/22 10:20:09;;;;;;;1999.90;999.90;;;22.60;34.10;;;;;;5092890;28;20418;-71
2023/07/22 10:22:36;;;;;;;1999.90;999.90;;;22.80;31.40;;;;;;5092628;28;20412;-71
2023/07/22 10:25:05;;;;;;;1999.90;999.90;;;22.80;35.90;;;;;;5092849;28;20496;-71
2023/07/22 10:27:31;;;;;;;1999.90;999.90;;;22.70;26.70;;;;;;5092398;28;20466;-71
2023/07/22 10:30:00;;;;;;;1999.90;999.90;;;22.80;26.20;;;;;;5092806;28;20419;-72
2023/07/22 10:32:38;;;;;;;1999.90;999.90;;;23.00;25.40;;;;;;5092425;28;20410;-71
2023/07/22 10:35:05;;;;;;;1999.90;999.90;;;23.10;21.80;;;;;;5092336;28;20458;-71
2023/07/22 10:37:34;;;;;;;1999.90;999.90;;;23.20;20.00;;;;;;5092534;28;20884;-72
2023/07/22 10:40:15;;;;;;;1999.90;999.90;;;23.30;20.20;;;;;;5092646;28;20377;-72
2023/07/22 10:42:41;;;;;;;1999.90;999.90;;;23.40;19.00;;;;;;5092245;28;20490;-72
2023/07/22 10:45:33;;;;;;;1999.90;999.90;;;23.30;17.70;;;;;;5092435;28;20431;-72
2023/07/22 10:48:10;;;;;;;1999.90;999.90;;;23.20;16.60;;;;;;5092323;28;20198;-72
2023/07/22 10:50:48;;;;;;;1999.90;999.90;;;23.40;18.20;;;;;;5092406;28;20408;-72
2023/07/22 10:53:20;;;;;;;1999.90;999.90;;;23.50;19.30;;;;;;5092063;28;20899;-72
2023/07/22 10:56:05;;;;;;;1999.90;999.90;;;23.60;17.90;;;;;;5092158;28;20430;-72
2023/07/22 10:58:32;;;;;;;1999.90;999.90;;;23.50;16.70;;;;;;5092454;28;20407;-71
2023/07/22 11:01:24;;;;;;;1999.90;999.90;;;23.30;16.20;;;;;;5091964;28;20403;-72
2023/07/22 11:04:12;;;;;;;1999.90;999.90;;;23.30;16.80;;;;;;5092243;28;20393;-71
2023/07/22 11:06:59;;;;;;;1999.90;999.90;;;23.30;18.90;;;;;;5092375;28;20467;-71
2023/07/22 11:09:28;;;;;;;1999.90;999.90;;;23.20;17.20;;;;;;5092034;28;20470;-71
2023/07/22 11:11:58;;;;;;;1999.90;999.90;;;23.20;16.40;;;;;;5091976;28;20503;-71
2023/07/22 11:14:28;;;;;;;1999.90;999.90;;;23.40;17.20;;;;;;5092236;28;20457;-71
2023/07/22 11:16:56;;;;;;;1999.90;999.90;;;23.40;16.80;;;;;;5092167;28;20917;-71
2023/07/22 11:19:26;;;;;;;1999.90;999.90;;;23.70;16.60;;;;;;5092182;28;20408;-71
2023/07/22 11:21:53;;;;;;;1999.90;999.90;;;23.90;16.60;;;;;;5091778;28;20408;-71
2023/07/22 11:24:20;;;;;;;1999.90;999.90;;;24.20;15.00;;;;;;5091705;28;20435;-71
2023/07/22 11:26:47;;;;;;;1999.90;999.90;;;24.30;14.60;;;;;;5091933;28;20910;-72
2023/07/22 11:29:13;;;;;;;1999.90;999.90;;;24.50;14.80;;;;;;5091829;28;20433;-71
2023/07/22 11:31:42;;;;;;;1999.90;999.90;;;24.50;12.20;;;;;;5091596;28;20889;-71
2023/07/22 11:34:09;;;;;;;1999.90;999.90;;;24.40;11.70;;;;;;5091941;28;20425;-71
2023/07/22 11:36:37;;;;;;;1999.90;999.90;;;24.20;10.50;;;;;;5091815;28;20411;-72
2023/07/22 11:39:05;;;;;;;1999.90;999.90;;;24.30;11.70;;;;;;5094103;28;20957;-71
2023/07/22 11:41:32;;;;;;;1999.90;999.90;;;24.40;10.00;;;;;;5095655;28;20751;-72
2023/07/22 11:43:59;;;;;;;1999.90;999.90;;;24.40;10.10;;;;;;5095762;28;20404;-71
2023/07/22 11:46:26;;;;;;;1999.90;999.90;;;24.60;10.30;;;;;;5095915;28;20513;-72
2023/07/22 11:48:52;;;;;;;1999.90;999.90;;;24.90;8.20;;;;;;5095722;28;20415;-71
2023/07/22 11:51:24;;;;;;;1999.90;999.90;;;25.00;5.90;;;;;;5095419;28;20408;-71
2023/07/22 11:53:50;;;;;;;1999.90;999.90;;;25.00;8.60;;;;;;5095620;28;20430;-71
2023/07/22 11:56:25;;;;;;;1999.90;999.90;;;25.00;5.90;;;;;;5095617;28;20833;-71
2023/07/22 11:58:52;;;;;;;1999.90;999.90;;;24.90;7.20;;;;;;5095622;28;20443;-71